New Everest — 3EUZ8 — position and weather

sailwx.info

Track history (hours):
 
Tides and Currents Weather Stations Pressure Air Temp Water Temp Dewpoint Dewpoint Depression Visibility Wind Speed Wind Dir Waves Ship Positions

New Everest

Last reported at 2018-May-28 11:50 UTC. Time now 2018-Jun-24 14:57 UTC.
Position S 38°57' E 145°37'.
Warning: this ship's position is 27 days out of date.

Length 176 m; draft 8.5 m.

Type: Cargo ship. MMSI: 372865000.

Date/timePositionNaut miles runAvg speedWind from/ knotsBaromVisibWave heightAir tempDewpointWater temp
2018-May-28 11:50S 38°57' E 145°37'411.4
2018-May-28 11:30S 38°59' E 145°41'611.3
2018-May-28 11:00S 39°02' E 145°47'611.3
2018-May-28 10:30S 39°05' E 145°53'611.4
2018-May-28 10:00S 39°08' E 145°60'611.4
2018-May-28 09:29S 39°11' E 146°06'511.0
2018-May-28 09:00S 39°12' E 146°13'611.7
2018-May-28 08:30S 39°12' E 146°21'611.5
2018-May-28 08:00S 39°09' E 146°27'611.6
2018-May-28 07:29S 39°07' E 146°34'711.6
2018-May-28 06:55S 39°04' E 146°42'511.3
2018-May-28 06:27S 39°03' E 146°49'511.2
2018-May-28 06:00S 39°01' E 146°55'611.0
2018-May-28 05:30S 38°59' E 147°02'510.9
2018-May-28 05:00S 38°58' E 147°08'510.7
2018-May-28 04:30S 38°56' E 147°15'510.8
2018-May-28 04:00S 38°55' E 147°21'510.8
2018-May-28 03:30S 38°53' E 147°28'610.9
2018-May-28 03:00S 38°51' E 147°35'511.1
2018-May-28 02:30S 38°50' E 147°42'611.3
2018-May-28 02:00S 38°48' E 147°49'611.5
2018-May-28 01:30S 38°47' E 147°56'611.7
2018-May-28 01:00S 38°45' E 148°03'611.9
2018-May-28 00:30S 38°43' E 148°10'612.0
2018-May-28 00:00S 38°40' E 148°17'612.3
2018-May-27 23:29S 38°36' E 148°23'612.1
2018-May-27 22:59S 38°32' E 148°29'611.6
2018-May-27 22:29S 38°29' E 148°35'611.6
2018-May-27 21:59S 38°25' E 148°40'611.5
2018-May-27 21:27S 38°22' E 148°47'511.5
2018-May-27 20:59S 38°19' E 148°53'612.0
2018-May-27 20:27S 38°16' E 149°00'512.0
2018-May-27 20:00S 38°13' E 149°06'1111.9
2018-May-27 19:04S 38°07' E 149°18'111.6
2018-May-27 19:00S 38°07' E 149°19'811.6
2018-May-27 18:17S 38°03' E 149°28'411.7
2018-May-27 17:56S 38°01' E 149°32'511.6
2018-May-27 17:30S 37°58' E 149°38'23911.0
2018-May-26 19:41S 34°17' E 151°30'312.2
2018-May-26 19:28S 34°14' E 151°31'612.2
2018-May-26 19:00S 34°09' E 151°33'611.8
2018-May-26 18:30S 34°03' E 151°35'611.8
2018-May-26 18:00S 33°58' E 151°37'611.8
2018-May-26 17:30S 33°52' E 151°39'612.0
2018-May-26 17:00S 33°46' E 151°42'612.1
2018-May-26 16:30S 33°41' E 151°44'812.1
2018-May-26 15:51S 33°33' E 151°47'2211.8
2018-May-26 14:00S 33°12' E 151°51'611.6
2018-May-26 13:30S 33°06' E 151°51'611.7
2018-May-26 13:00S 32°60' E 151°51'510.4
2018-May-26 12:30S 32°55' E 151°49'2 4.6
2018-May-26 12:00S 32°54' E 151°46'1 0.5
2018-May-26 10:31S 32°54' E 151°46'0 0.0
2018-May-26 10:25S 32°54' E 151°46'0 0.0
2018-May-26 08:16S 32°54' E 151°46'0 0.0
2018-May-26 07:55S 32°54' E 151°46'0 0.0
2018-May-26 07:25S 32°54' E 151°46'0 0.0
2018-May-26 06:49S 32°54' E 151°46'0 0.0
2018-May-26 06:19S 32°54' E 151°46'0 0.0
2018-May-26 04:37S 32°54' E 151°46'0 0.0
2018-May-26 04:13S 32°54' E 151°46'0 0.0
2018-May-26 03:31S 32°54' E 151°46'0 0.0
2018-May-26 03:13S 32°54' E 151°46'0 0.0
2018-May-26 02:49S 32°54' E 151°46'0 0.0
2018-May-26 02:25S 32°54' E 151°46'0 0.0
2018-May-26 01:55S 32°54' E 151°46'0 0.0
2018-May-26 00:16S 32°54' E 151°46'0 0.0
2018-May-25 23:52S 32°54' E 151°46'0 0.0
2018-May-25 23:25S 32°54' E 151°46'0 0.0
2018-May-25 22:55S 32°54' E 151°46'0 0.0
2018-May-25 22:07S 32°54' E 151°46'0 0.0
2018-May-25 21:49S 32°54' E 151°46'0 0.0
2018-May-25 21:19S 32°54' E 151°46'0 0.0
2018-May-24 03:31S 32°54' E 151°46'1 4.6
2018-May-24 03:18S 32°55' E 151°46'2 5.8
2018-May-24 03:00S 32°55' E 151°48'4 8.6
2018-May-24 02:30S 32°58' E 151°52'4 8.6
2018-May-24 02:01S 33°02' E 151°54'0 0.9
2018-May-24 01:30S 33°02' E 151°54'2 3.9
2018-May-24 01:00S 33°01' E 151°56'4 7.4
2018-May-24 00:30S 33°00' E 152°01'2 3.1
2018-May-24 00:00S 33°00' E 152°02'1 1.0
2018-May-23 23:30S 33°01' E 152°02'1 1.1
2018-May-23 23:00S 33°01' E 152°02'1 1.1
2018-May-23 22:30S 33°02' E 152°02'1 1.1
2018-May-23 22:00S 33°02' E 152°01'1 1.1
2018-May-23 21:30S 33°03' E 152°01'1 1.1
2018-May-23 20:57S 33°03' E 152°01'0 1.0
2018-May-23 20:30S 33°04' E 152°01'1 0.9
2018-May-23 19:57S 33°04' E 152°00'0 0.8
2018-May-23 19:27S 33°05' E 152°00'0 0.8
2018-May-23 19:00S 33°05' E 152°00'0 0.6
2018-May-23 18:30S 33°05' E 152°00'0 0.4
2018-May-23 18:00S 33°05' E 151°60'0 0.5
2018-May-23 17:30S 33°06' E 152°00'0 0.5
2018-May-23 17:00S 33°06' E 152°00'0 0.5
2018-May-23 16:27S 33°06' E 152°00'0 0.4
2018-May-23 15:57S 33°06' E 152°00'0 0.4
2018-May-23 15:27S 33°06' E 152°01'0 0.4
2018-May-23 15:00S 33°06' E 152°01'0 0.3
2018-May-23 14:30S 33°07' E 152°01'0 0.3
2018-May-23 14:00S 33°07' E 152°01'0 0.3
2018-May-23 13:30S 33°07' E 152°01'0 0.4
2018-May-23 12:57S 33°07' E 152°01'0 0.4
2018-May-23 12:30S 33°07' E 152°02'0 0.5
2018-May-23 11:45S 33°07' E 152°02'0 0.8
2018-May-23 11:30S 33°07' E 152°02'1 0.7
2018-May-23 10:33S 33°07' E 152°03'0 0.7
2018-May-23 10:27S 33°07' E 152°03'0 0.6
2018-May-23 10:00S 33°08' E 152°03'0 0.4
2018-May-23 09:30S 33°08' E 152°03'0 0.5
2018-May-23 08:45S 33°08' E 152°04'0 0.5
2018-May-23 08:27S 33°08' E 152°04'0 0.6
2018-May-23 08:00S 33°08' E 152°04'0 0.2
2018-May-23 07:27S 33°08' E 152°04'2 4.4
2018-May-23 07:00S 33°07' E 152°03'4 8.6
2018-May-23 06:30S 33°04' E 151°59'4 7.9
2018-May-23 06:00S 33°01' E 151°55'2 3.1
2018-May-23 05:30S 33°01' E 151°57'3 6.1
2018-May-23 05:00S 33°03' E 152°00'3 5.5
2018-May-23 04:30S 33°05' E 152°03'3 6.4
2018-May-23 04:00S 33°06' E 152°06'4 7.4
2018-May-23 03:30S 33°07' E 152°10'5 9.2
2018-May-23 03:00S 33°05' E 152°15'4 8.9
2018-May-23 02:31S 33°02' E 152°19'4 8.6
2018-May-23 02:00S 32°59' E 152°23'4 8.8
2018-May-23 01:30S 32°56' E 152°27'5 9.2
2018-May-23 01:00S 32°53' E 152°31'5 9.0
2018-May-23 00:30S 32°50' E 152°35'5 9.2
2018-May-23 00:00S 32°47' E 152°39'5 8.9
2018-May-22 23:30S 32°44' E 152°43'4 9.0
2018-May-22 23:00S 32°41' E 152°47'4 9.0
2018-May-22 22:30S 32°38' E 152°51'27610.4
2018-May-21 20:05S 28°07' E 153°48'111.0
2018-May-21 19:59S 28°06' E 153°48'1210.7
2018-May-21 18:53S 27°54' E 153°48'410.6
2018-May-21 18:30S 27°50' E 153°48'510.4
2018-May-21 18:00S 27°45' E 153°48'510.5
2018-May-21 17:29S 27°39' E 153°48'610.8
2018-May-21 16:56S 27°33' E 153°48'2011.2
2018-May-21 15:10S 27°14' E 153°47'911.2
2018-May-21 14:20S 27°04' E 153°46'  
Track history (hours):
 
Tides and Currents Weather Stations Pressure Air Temp Water Temp Dewpoint Dewpoint Depression Visibility Wind Speed Wind Dir Waves Ship Positions

New Everest

Last reported at 2018-May-28 11:50 UTC. Time now 2018-Jun-24 14:57 UTC.
Position S 38°57' E 145°37'.
Warning: this ship's position is 27 days out of date.

Length 176 m; draft 8.5 m.

Type: Cargo ship. MMSI: 372865000.

Date/timePositionNaut miles runAvg speedWind from/ knotsBaromVisibWave heightAir tempDewpointWater temp
2018-May-28 11:50S 38°57' E 145°37'411.4
2018-May-28 11:30S 38°59' E 145°41'611.3
2018-May-28 11:00S 39°02' E 145°47'611.3
2018-May-28 10:30S 39°05' E 145°53'611.4
2018-May-28 10:00S 39°08' E 145°60'611.4
2018-May-28 09:29S 39°11' E 146°06'511.0
2018-May-28 09:00S 39°12' E 146°13'611.7
2018-May-28 08:30S 39°12' E 146°21'611.5
2018-May-28 08:00S 39°09' E 146°27'611.6
2018-May-28 07:29S 39°07' E 146°34'711.6
2018-May-28 06:55S 39°04' E 146°42'511.3
2018-May-28 06:27S 39°03' E 146°49'511.2
2018-May-28 06:00S 39°01' E 146°55'611.0
2018-May-28 05:30S 38°59' E 147°02'510.9
2018-May-28 05:00S 38°58' E 147°08'510.7
2018-May-28 04:30S 38°56' E 147°15'510.8
2018-May-28 04:00S 38°55' E 147°21'510.8
2018-May-28 03:30S 38°53' E 147°28'610.9
2018-May-28 03:00S 38°51' E 147°35'511.1
2018-May-28 02:30S 38°50' E 147°42'611.3
2018-May-28 02:00S 38°48' E 147°49'611.5
2018-May-28 01:30S 38°47' E 147°56'611.7
2018-May-28 01:00S 38°45' E 148°03'611.9
2018-May-28 00:30S 38°43' E 148°10'612.0
2018-May-28 00:00S 38°40' E 148°17'612.3
2018-May-27 23:29S 38°36' E 148°23'612.1
2018-May-27 22:59S 38°32' E 148°29'611.6
2018-May-27 22:29S 38°29' E 148°35'611.6
2018-May-27 21:59S 38°25' E 148°40'611.5
2018-May-27 21:27S 38°22' E 148°47'511.5
2018-May-27 20:59S 38°19' E 148°53'612.0
2018-May-27 20:27S 38°16' E 149°00'512.0
2018-May-27 20:00S 38°13' E 149°06'1111.9
2018-May-27 19:04S 38°07' E 149°18'111.6
2018-May-27 19:00S 38°07' E 149°19'811.6
2018-May-27 18:17S 38°03' E 149°28'411.7
2018-May-27 17:56S 38°01' E 149°32'511.6
2018-May-27 17:30S 37°58' E 149°38'23911.0
2018-May-26 19:41S 34°17' E 151°30'312.2
2018-May-26 19:28S 34°14' E 151°31'612.2
2018-May-26 19:00S 34°09' E 151°33'611.8
2018-May-26 18:30S 34°03' E 151°35'611.8
2018-May-26 18:00S 33°58' E 151°37'611.8
2018-May-26 17:30S 33°52' E 151°39'612.0
2018-May-26 17:00S 33°46' E 151°42'612.1
2018-May-26 16:30S 33°41' E 151°44'812.1
2018-May-26 15:51S 33°33' E 151°47'2211.8
2018-May-26 14:00S 33°12' E 151°51'611.6
2018-May-26 13:30S 33°06' E 151°51'611.7
2018-May-26 13:00S 32°60' E 151°51'510.4
2018-May-26 12:30S 32°55' E 151°49'2 4.6
2018-May-26 12:00S 32°54' E 151°46'1 0.5
2018-May-26 10:31S 32°54' E 151°46'0 0.0
2018-May-26 10:25S 32°54' E 151°46'0 0.0
2018-May-26 08:16S 32°54' E 151°46'0 0.0
2018-May-26 07:55S 32°54' E 151°46'0 0.0
2018-May-26 07:25S 32°54' E 151°46'0 0.0
2018-May-26 06:49S 32°54' E 151°46'0 0.0
2018-May-26 06:19S 32°54' E 151°46'0 0.0
2018-May-26 04:37S 32°54' E 151°46'0 0.0
2018-May-26 04:13S 32°54' E 151°46'0 0.0
2018-May-26 03:31S 32°54' E 151°46'0 0.0
2018-May-26 03:13S 32°54' E 151°46'0 0.0
2018-May-26 02:49S 32°54' E 151°46'0 0.0
2018-May-26 02:25S 32°54' E 151°46'0 0.0
2018-May-26 01:55S 32°54' E 151°46'0 0.0
2018-May-26 00:16S 32°54' E 151°46'0 0.0
2018-May-25 23:52S 32°54' E 151°46'0 0.0
2018-May-25 23:25S 32°54' E 151°46'0 0.0
2018-May-25 22:55S 32°54' E 151°46'0 0.0
2018-May-25 22:07S 32°54' E 151°46'0 0.0
2018-May-25 21:49S 32°54' E 151°46'0 0.0
2018-May-25 21:19S 32°54' E 151°46'0 0.0
2018-May-24 03:31S 32°54' E 151°46'1 4.6
2018-May-24 03:18S 32°55' E 151°46'2 5.8
2018-May-24 03:00S 32°55' E 151°48'4 8.6
2018-May-24 02:30S 32°58' E 151°52'4 8.6
2018-May-24 02:01S 33°02' E 151°54'0 0.9
2018-May-24 01:30S 33°02' E 151°54'2 3.9
2018-May-24 01:00S 33°01' E 151°56'4 7.4
2018-May-24 00:30S 33°00' E 152°01'2 3.1
2018-May-24 00:00S 33°00' E 152°02'1 1.0
2018-May-23 23:30S 33°01' E 152°02'1 1.1
2018-May-23 23:00S 33°01' E 152°02'1 1.1
2018-May-23 22:30S 33°02' E 152°02'1 1.1
2018-May-23 22:00S 33°02' E 152°01'1 1.1
2018-May-23 21:30S 33°03' E 152°01'1 1.1
2018-May-23 20:57S 33°03' E 152°01'0 1.0
2018-May-23 20:30S 33°04' E 152°01'1 0.9
2018-May-23 19:57S 33°04' E 152°00'0 0.8
2018-May-23 19:27S 33°05' E 152°00'0 0.8
2018-May-23 19:00S 33°05' E 152°00'0 0.6
2018-May-23 18:30S 33°05' E 152°00'0 0.4
2018-May-23 18:00S 33°05' E 151°60'0 0.5
2018-May-23 17:30S 33°06' E 152°00'0 0.5
2018-May-23 17:00S 33°06' E 152°00'0 0.5
2018-May-23 16:27S 33°06' E 152°00'0 0.4
2018-May-23 15:57S 33°06' E 152°00'0 0.4
2018-May-23 15:27S 33°06' E 152°01'0 0.4
2018-May-23 15:00S 33°06' E 152°01'0 0.3
2018-May-23 14:30S 33°07' E 152°01'0 0.3
2018-May-23 14:00S 33°07' E 152°01'0 0.3
2018-May-23 13:30S 33°07' E 152°01'0 0.4
2018-May-23 12:57S 33°07' E 152°01'0 0.4
2018-May-23 12:30S 33°07' E 152°02'0 0.5
2018-May-23 11:45S 33°07' E 152°02'0 0.8
2018-May-23 11:30S 33°07' E 152°02'1 0.7
2018-May-23 10:33S 33°07' E 152°03'0 0.7
2018-May-23 10:27S 33°07' E 152°03'0 0.6
2018-May-23 10:00S 33°08' E 152°03'0 0.4
2018-May-23 09:30S 33°08' E 152°03'0 0.5
2018-May-23 08:45S 33°08' E 152°04'0 0.5
2018-May-23 08:27S 33°08' E 152°04'0 0.6
2018-May-23 08:00S 33°08' E 152°04'0 0.2
2018-May-23 07:27S 33°08' E 152°04'2 4.4
2018-May-23 07:00S 33°07' E 152°03'4 8.6
2018-May-23 06:30S 33°04' E 151°59'4 7.9
2018-May-23 06:00S 33°01' E 151°55'2 3.1
2018-May-23 05:30S 33°01' E 151°57'3 6.1
2018-May-23 05:00S 33°03' E 152°00'3 5.5
2018-May-23 04:30S 33°05' E 152°03'3 6.4
2018-May-23 04:00S 33°06' E 152°06'4 7.4
2018-May-23 03:30S 33°07' E 152°10'5 9.2
2018-May-23 03:00S 33°05' E 152°15'4 8.9
2018-May-23 02:31S 33°02' E 152°19'4 8.6
2018-May-23 02:00S 32°59' E 152°23'4 8.8
2018-May-23 01:30S 32°56' E 152°27'5 9.2
2018-May-23 01:00S 32°53' E 152°31'5 9.0
2018-May-23 00:30S 32°50' E 152°35'5 9.2
2018-May-23 00:00S 32°47' E 152°39'5 8.9
2018-May-22 23:30S 32°44' E 152°43'4 9.0
2018-May-22 23:00S 32°41' E 152°47'4 9.0
2018-May-22 22:30S 32°38' E 152°51'27610.4
2018-May-21 20:05S 28°07' E 153°48'111.0
2018-May-21 19:59S 28°06' E 153°48'1210.7
2018-May-21 18:53S 27°54' E 153°48'410.6
2018-May-21 18:30S 27°50' E 153°48'510.4
2018-May-21 18:00S 27°45' E 153°48'510.5
2018-May-21 17:29S 27°39' E 153°48'610.8
2018-May-21 16:56S 27°33' E 153°48'2011.2
2018-May-21 15:10S 27°14' E 153°47'911.2
2018-May-21 14:20S 27°04' E 153°46'  

Dump ship's entire track history